createdAt,value
2019-05-10T00:00:39.951Z,74.07
2019-05-10T00:03:28.098Z,74.57
2019-05-10T00:06:16.122Z,74.60
2019-05-10T00:08:45.828Z,76.09
2019-05-10T00:11:34.333Z,75.62
2019-05-10T00:14:30.490Z,76.15
2019-05-10T00:17:05.860Z,75.62
2019-05-10T00:19:36.306Z,75.09
2019-05-10T00:22:06.784Z,75.80
2019-05-10T00:24:37.223Z,76.04
2019-05-10T00:27:07.927Z,75.52
2019-05-10T00:29:38.515Z,75.40
2019-05-10T00:32:09.113Z,75.69
2019-05-10T00:34:39.603Z,76.03
2019-05-10T00:37:10.115Z,76.14
2019-05-10T00:39:40.598Z,76.25
2019-05-10T00:42:11.117Z,76.24
2019-05-10T00:44:41.551Z,77.43
2019-05-10T00:47:12.059Z,77.17
2019-05-10T00:49:42.509Z,76.63
2019-05-10T00:52:12.994Z,76.50
2019-05-10T00:54:43.465Z,75.70
2019-05-10T00:57:13.943Z,75.86
2019-05-10T00:59:44.391Z,75.33
2019-05-10T01:02:14.876Z,75.93
2019-05-10T01:04:45.334Z,75.49
2019-05-10T01:07:15.943Z,75.62
2019-05-10T01:09:46.383Z,76.01
2019-05-10T01:12:16.900Z,75.70
2019-05-10T01:14:47.317Z,75.18
2019-05-10T01:17:17.901Z,75.15
2019-05-10T01:19:48.644Z,75.80
2019-05-10T01:22:19.094Z,75.44
2019-05-10T01:24:49.583Z,75.61
2019-05-10T01:27:20.020Z,76.46
2019-05-10T01:29:50.508Z,76.67
2019-05-10T01:32:21.134Z,76.49
2019-05-10T01:34:51.696Z,76.70
2019-05-10T01:37:22.146Z,76.36
2019-05-10T01:39:52.635Z,76.35
2019-05-10T01:42:23.130Z,76.02
2019-05-10T01:44:53.624Z,76.15
2019-05-10T01:47:24.079Z,76.59
2019-05-10T01:49:54.564Z,76.31
2019-05-10T01:52:25.011Z,76.33
2019-05-10T01:54:55.497Z,76.41
2019-05-10T01:57:25.987Z,76.72
2019-05-10T01:59:56.441Z,76.47
2019-05-10T02:02:26.910Z,76.49
2019-05-10T02:04:57.343Z,76.04
2019-05-10T02:07:27.835Z,76.31
2019-05-10T02:09:58.282Z,76.24
2019-05-10T02:12:28.876Z,76.04
2019-05-10T02:14:59.331Z,75.96
2019-05-10T02:17:29.831Z,76.35
2019-05-10T02:20:00.279Z,77.38
2019-05-10T02:22:30.769Z,78.09
2019-05-10T02:25:01.319Z,78.49
2019-05-10T02:27:31.766Z,78.64
2019-05-10T02:30:02.245Z,78.25
2019-05-10T02:32:32.686Z,78.34
2019-05-10T02:35:03.173Z,78.30
2019-05-10T02:37:33.681Z,77.64
2019-05-10T02:40:04.437Z,78.14
2019-05-10T02:42:35.060Z,78.22
2019-05-10T02:45:06.119Z,78.11
2019-05-10T02:47:36.633Z,77.89
2019-05-10T02:50:07.591Z,77.96
2019-05-10T02:52:38.231Z,78.87
2019-05-10T02:55:08.791Z,79.12
2019-05-10T02:57:39.390Z,79.20
2019-05-10T03:00:10.454Z,79.14
2019-05-10T03:02:41.542Z,79.47
2019-05-10T03:05:12.342Z,79.19
2019-05-10T03:07:44.219Z,80.17
2019-05-10T03:10:15.106Z,80.46
2019-05-10T03:12:47.002Z,80.13
2019-05-10T03:15:17.742Z,79.64
2019-05-10T03:17:50.147Z,78.83
2019-05-10T03:20:20.728Z,79.04
2019-05-10T03:22:51.427Z,78.85
2019-05-10T03:25:21.883Z,78.63
2019-05-10T03:27:52.567Z,78.48
2019-05-10T03:30:23.015Z,78.21
2019-05-10T03:32:53.606Z,77.72
2019-05-10T03:35:24.721Z,76.99
2019-05-10T03:37:55.457Z,76.79
2019-05-10T03:40:25.887Z,77.45
2019-05-10T03:42:56.341Z,77.61
2019-05-10T03:45:26.915Z,77.07
2019-05-10T03:47:57.418Z,77.56
2019-05-10T03:50:27.897Z,77.98
2019-05-10T03:52:58.388Z,78.63
2019-05-10T03:55:28.845Z,77.46
2019-05-10T03:57:59.423Z,78.07
2019-05-10T04:00:29.876Z,78.52
2019-05-10T04:03:00.438Z,77.92
2019-05-10T04:05:30.911Z,77.47
2019-05-10T04:08:01.388Z,76.88
2019-05-10T04:10:31.882Z,76.68
2019-05-10T04:13:02.328Z,76.92
2019-05-10T04:15:32.823Z,76.12
2019-05-10T04:18:03.291Z,74.57
2019-05-10T04:20:33.787Z,74.15
2019-05-10T04:23:04.336Z,73.46
2019-05-10T04:25:34.836Z,72.66
2019-05-10T04:28:05.293Z,72.76
2019-05-10T04:30:35.788Z,72.08
2019-05-10T04:33:06.334Z,70.90
2019-05-10T04:35:36.873Z,69.74
2019-05-10T04:38:07.369Z,68.28
2019-05-10T04:40:37.851Z,67.41
2019-05-10T04:43:08.377Z,67.75
2019-05-10T04:45:38.796Z,68.39
2019-05-10T04:48:09.292Z,68.10
2019-05-10T04:50:39.733Z,66.70
2019-05-10T04:53:10.237Z,67.65
2019-05-10T04:55:40.786Z,66.48
2019-05-10T04:58:11.320Z,65.31
2019-05-10T05:00:42.240Z,66.19
2019-05-10T05:03:12.751Z,64.78
2019-05-10T05:05:43.291Z,64.52
2019-05-10T05:08:13.820Z,65.28
2019-05-10T05:10:44.352Z,64.94
2019-05-10T05:13:14.799Z,63.73
2019-05-10T05:15:45.305Z,63.57
2019-05-10T05:18:15.834Z,63.48
2019-05-10T05:20:46.369Z,61.08
2019-05-10T05:23:16.838Z,62.03
2019-05-10T05:25:48.779Z,60.66
2019-05-10T05:28:23.343Z,60.63
2019-05-10T05:30:51.521Z,60.72
2019-05-10T05:33:24.297Z,60.87
2019-05-10T05:35:54.960Z,60.08
2019-05-10T05:38:25.460Z,59.42
2019-05-10T05:40:55.957Z,59.53
2019-05-10T05:43:27.034Z,57.26
2019-05-10T05:45:57.559Z,57.91
2019-05-10T05:48:40.104Z,57.33
2019-05-10T05:51:00.279Z,57.32
2019-05-10T05:53:35.737Z,57.64
2019-05-10T05:56:12.903Z,57.38
2019-05-10T05:58:44.572Z,56.47
2019-05-10T06:01:24.756Z,57.43
2019-05-10T06:03:48.259Z,56.23
2019-05-10T06:06:22.337Z,55.73
2019-05-10T06:08:54.601Z,55.66
2019-05-10T06:11:24.358Z,56.29
2019-05-10T06:13:57.099Z,55.66
2019-05-10T06:16:27.621Z,54.48
2019-05-10T06:18:58.139Z,53.48
2019-05-10T06:21:28.648Z,53.07
2019-05-10T06:23:59.603Z,54.56
2019-05-10T06:26:30.218Z,54.36
2019-05-10T06:29:04.554Z,54.15
2019-05-10T06:31:35.198Z,53.80
2019-05-10T06:34:07.093Z,53.01
2019-05-10T06:36:37.858Z,52.92
2019-05-10T06:39:08.719Z,53.54
2019-05-10T06:41:39.214Z,53.31
2019-05-10T06:44:09.777Z,51.82
2019-05-10T06:46:40.304Z,51.43
2019-05-10T06:49:11.068Z,51.37
2019-05-10T06:51:42.729Z,51.51
2019-05-10T06:54:13.738Z,50.85
2019-05-10T06:56:44.244Z,49.90
2019-05-10T06:59:19.467Z,49.43
2019-05-10T07:01:51.483Z,49.46
2019-05-10T07:04:19.034Z,48.36
2019-05-10T07:06:49.645Z,49.82
2019-05-10T07:09:20.177Z,48.90
2019-05-10T07:11:50.702Z,48.93
2019-05-10T07:14:25.457Z,48.60
2019-05-10T07:16:56.486Z,48.48
2019-05-10T07:19:28.719Z,47.49
2019-05-10T07:21:58.166Z,48.67
2019-05-10T07:24:28.620Z,48.33
2019-05-10T07:27:02.818Z,49.15
2019-05-10T07:29:41.944Z,47.35
2019-05-10T07:32:03.496Z,47.96
2019-05-10T07:34:33.961Z,47.97
2019-05-10T07:37:04.783Z,46.75
2019-05-10T07:39:35.315Z,47.09
2019-05-10T07:42:07.167Z,46.39
2019-05-10T07:44:41.458Z,46.48
2019-05-10T07:47:10.356Z,46.58
2019-05-10T07:49:40.852Z,48.20
2019-05-10T07:52:11.295Z,46.01
2019-05-10T07:54:45.414Z,45.48
2019-05-10T07:57:18.531Z,46.83
2019-05-10T07:59:50.891Z,46.54
2019-05-10T08:02:18.435Z,48.14
2019-05-10T08:04:53.302Z,49.20
2019-05-10T08:07:21.109Z,49.65
2019-05-10T08:09:51.521Z,50.85
2019-05-10T08:12:22.154Z,51.68
2019-05-10T08:14:53.634Z,52.51
2019-05-10T08:17:24.226Z,51.28
2019-05-10T08:19:54.716Z,51.46
2019-05-10T08:22:25.213Z,51.42
2019-05-10T08:24:56.437Z,52.14
2019-05-10T08:27:27.080Z,52.35
2019-05-10T08:30:17.834Z,50.56
2019-05-10T08:32:32.660Z,49.96
2019-05-10T08:35:05.078Z,49.18
2019-05-10T08:37:37.788Z,49.96
2019-05-10T08:40:06.689Z,48.28
2019-05-10T08:42:45.460Z,48.72
2019-05-10T08:45:12.394Z,48.29
2019-05-10T08:47:42.865Z,45.52
2019-05-10T08:50:29.322Z,44.08
2019-05-10T08:52:47.006Z,44.13
2019-05-10T08:55:17.477Z,44.70
2019-05-10T08:57:49.432Z,45.55
2019-05-10T09:00:40.222Z,44.84
2019-05-10T09:02:52.419Z,44.08
2019-05-10T09:05:28.811Z,45.06
2019-05-10T09:07:55.911Z,44.92
2019-05-10T09:10:26.602Z,43.91
2019-05-10T09:12:58.197Z,42.14
2019-05-10T09:15:28.940Z,41.35
2019-05-10T09:18:04.413Z,41.50
2019-05-10T09:20:32.015Z,41.09
2019-05-10T09:23:02.686Z,40.65
2019-05-10T09:25:33.825Z,40.50
2019-05-10T09:28:14.638Z,40.55
2019-05-10T09:30:52.368Z,40.54
2019-05-10T09:33:13.436Z,40.08
2019-05-10T09:35:46.814Z,38.93
2019-05-10T09:38:13.971Z,39.98
2019-05-10T09:40:51.366Z,39.42
2019-05-10T09:43:16.709Z,40.15
2019-05-10T09:45:47.230Z,40.33
2019-05-10T09:48:17.690Z,41.12
2019-05-10T09:50:48.309Z,40.85
2019-05-10T09:53:23.674Z,40.90
2019-05-10T09:56:00.184Z,40.43
2019-05-10T09:58:23.395Z,39.80
2019-05-10T10:01:09.494Z,39.79
2019-05-10T10:03:29.555Z,40.04
2019-05-10T10:06:05.484Z,40.01
2019-05-10T10:08:30.563Z,39.36
2019-05-10T10:11:13.953Z,40.56
2019-05-10T10:13:43.068Z,40.44
2019-05-10T10:16:10.187Z,40.22
2019-05-10T10:18:38.305Z,39.69
2019-05-10T10:21:10.466Z,40.78
2019-05-10T10:23:41.008Z,40.59
2019-05-10T10:26:12.724Z,41.55
2019-05-10T10:28:43.675Z,40.28
2019-05-10T10:31:26.192Z,40.59
2019-05-10T10:33:57.353Z,40.12
2019-05-10T10:36:18.606Z,39.45
2019-05-10T10:38:49.791Z,38.67
2019-05-10T10:41:25.863Z,38.66
2019-05-10T10:43:52.595Z,39.42
2019-05-10T10:46:23.134Z,39.00
2019-05-10T10:48:53.828Z,39.12
2019-05-10T10:51:26.601Z,38.74
2019-05-10T10:53:57.986Z,37.79
2019-05-10T10:56:28.787Z,37.36
2019-05-10T10:58:59.234Z,38.03
2019-05-10T11:01:45.709Z,38.83
2019-05-10T11:04:07.944Z,39.51
2019-05-10T11:06:34.549Z,39.56
2019-05-10T11:09:06.838Z,39.68
2019-05-10T11:11:41.275Z,40.33
2019-05-10T11:14:11.106Z,40.21
2019-05-10T11:16:41.672Z,40.46
2019-05-10T11:19:15.581Z,39.01
2019-05-10T11:21:44.384Z,38.31
2019-05-10T11:24:18.190Z,38.97
2019-05-10T11:26:47.044Z,39.21
2019-05-10T11:29:25.368Z,38.59
2019-05-10T11:32:10.423Z,38.43
2019-05-10T11:34:22.083Z,36.28
2019-05-10T11:36:52.577Z,37.26
2019-05-10T11:39:26.763Z,37.04
2019-05-10T11:42:02.161Z,36.43
2019-05-10T11:44:27.454Z,37.00
2019-05-10T11:46:58.060Z,36.56
2019-05-10T11:49:30.696Z,36.39
2019-05-10T11:52:04.344Z,36.09
2019-05-10T11:54:34.853Z,35.79
2019-05-10T11:57:09.608Z,35.48
2019-05-10T11:59:41.249Z,36.15
2019-05-10T12:02:10.602Z,36.23
2019-05-10T12:04:43.380Z,36.38
2019-05-10T12:07:14.045Z,35.84
2019-05-10T12:09:44.479Z,36.30
2019-05-10T12:12:15.090Z,36.16
2019-05-10T12:14:46.684Z,36.41
2019-05-10T12:17:17.720Z,36.08
2019-05-10T12:22:21.653Z,35.69
2019-05-10T12:26:05.677Z,36.36
2019-05-10T12:26:31.416Z,36.20
2019-05-10T12:27:30.053Z,36.39
2019-05-10T12:30:02.597Z,35.79
2019-05-10T12:32:33.536Z,36.17
2019-05-10T12:35:01.579Z,36.20
2019-05-10T12:37:32.099Z,36.26
2019-05-10T12:40:09.937Z,34.90
2019-05-10T12:42:34.793Z,34.85
2019-05-10T12:45:05.820Z,34.43
2019-05-10T12:47:36.650Z,34.28
2019-05-10T12:50:07.654Z,34.32
2019-05-10T12:52:38.203Z,34.45
2019-05-10T12:55:09.246Z,35.37
2019-05-10T12:57:43.126Z,35.40
2019-05-10T13:00:15.730Z,35.44
2019-05-10T13:02:51.238Z,35.10
2019-05-10T13:05:18.077Z,34.61
2019-05-10T13:07:48.544Z,33.62
2019-05-10T13:10:19.428Z,34.11
2019-05-10T13:12:50.015Z,34.53
2019-05-10T13:15:24.702Z,34.22
2019-05-10T13:17:53.340Z,33.68
2019-05-10T13:20:23.992Z,32.38
2019-05-10T13:22:54.443Z,30.92
2019-05-10T13:25:24.965Z,30.97
2019-05-10T13:27:55.453Z,30.89
2019-05-10T13:30:28.064Z,30.91
2019-05-10T13:33:00.215Z,29.81
2019-05-10T13:35:30.457Z,30.95
2019-05-10T13:38:03.628Z,30.61
2019-05-10T13:40:33.120Z,30.92
2019-05-10T13:43:03.622Z,31.46
2019-05-10T13:45:37.547Z,30.98
2019-05-10T13:48:06.376Z,31.71
2019-05-10T13:50:36.893Z,31.37
2019-05-10T13:53:19.774Z,32.15
2019-05-10T13:55:39.586Z,32.84
2019-05-10T13:58:10.147Z,32.54
2019-05-10T14:00:40.698Z,32.55
2019-05-10T14:03:13.386Z,32.53
2019-05-10T14:05:44.077Z,30.95
2019-05-10T14:08:14.589Z,31.29
2019-05-10T14:10:49.673Z,31.94
2019-05-10T14:13:19.460Z,32.17
2019-05-10T14:15:49.934Z,32.22
2019-05-10T14:18:20.614Z,32.69
2019-05-10T14:20:51.119Z,33.38
2019-05-10T14:23:21.623Z,33.87
2019-05-10T14:25:52.074Z,33.67
2019-05-10T14:28:22.597Z,34.40
2019-05-10T14:30:57.191Z,34.27
2019-05-10T14:33:25.384Z,34.03
2019-05-10T14:36:00.915Z,34.03
2019-05-10T14:38:28.067Z,32.84
2019-05-10T14:41:04.132Z,32.77
2019-05-10T14:43:30.728Z,32.81
2019-05-10T14:46:01.178Z,32.67
2019-05-10T14:48:35.259Z,32.27
2019-05-10T14:51:11.219Z,31.93
2019-05-10T14:53:36.116Z,32.17
2019-05-10T14:56:08.155Z,31.37
2019-05-10T14:58:38.723Z,31.33
2019-05-10T15:01:09.173Z,31.07
2019-05-10T15:03:45.400Z,30.20
2019-05-10T15:06:11.834Z,30.45
2019-05-10T15:08:42.344Z,30.11
2019-05-10T15:11:12.796Z,30.37
2019-05-10T15:13:43.298Z,30.54
2019-05-10T15:16:25.762Z,30.05
2019-05-10T15:18:46.027Z,29.59
2019-05-10T15:21:16.520Z,30.11
2019-05-10T15:23:47.022Z,29.89
2019-05-10T15:26:17.455Z,29.73
2019-05-10T15:28:47.935Z,30.45
2019-05-10T15:31:18.377Z,30.69
2019-05-10T15:33:48.857Z,31.10
2019-05-10T15:36:23.546Z,31.85
2019-05-10T15:38:52.320Z,32.33
2019-05-10T15:41:24.016Z,33.39
2019-05-10T15:43:54.962Z,34.27
2019-05-10T15:46:35.724Z,34.84
2019-05-10T15:48:57.813Z,35.76
2019-05-10T15:51:36.167Z,36.03
2019-05-10T15:54:05.124Z,36.62
2019-05-10T15:56:35.587Z,37.26
2019-05-10T15:59:05.096Z,37.43
2019-05-10T16:01:35.893Z,37.52
2019-05-10T16:04:06.633Z,37.45
2019-05-10T16:06:37.831Z,37.07
2019-05-10T16:09:16.931Z,36.69
2019-05-10T16:11:41.721Z,36.57
2019-05-10T16:14:12.196Z,36.31
2019-05-10T16:16:42.660Z,36.72
2019-05-10T16:19:18.384Z,36.99
2019-05-10T16:21:46.610Z,37.03
2019-05-10T16:24:24.926Z,37.48
2019-05-10T16:26:49.624Z,37.70
2019-05-10T16:29:20.064Z,37.96
2019-05-10T16:31:50.510Z,38.52
2019-05-10T16:34:26.437Z,38.71
2019-05-10T16:36:53.146Z,38.89
2019-05-10T16:39:23.659Z,38.58
2019-05-10T16:41:54.095Z,38.71
2019-05-10T16:44:24.576Z,38.61
2019-05-10T16:46:55.019Z,38.69
2019-05-10T16:49:25.506Z,38.54
2019-05-10T16:51:55.948Z,38.25
2019-05-10T16:54:27.369Z,38.78
2019-05-10T16:56:59.945Z,38.90
2019-05-10T16:59:31.398Z,39.05
2019-05-10T17:02:04.443Z,39.32
2019-05-10T17:04:37.778Z,39.70
2019-05-10T17:07:06.502Z,39.94
2019-05-10T17:09:36.983Z,40.32
2019-05-10T17:12:07.465Z,40.16
2019-05-10T17:14:38.011Z,40.46
2019-05-10T17:17:08.489Z,40.45
2019-05-10T17:19:38.960Z,40.72
2019-05-10T17:22:09.408Z,41.01
2019-05-10T17:24:39.908Z,40.93
2019-05-10T17:27:10.342Z,41.02
2019-05-10T17:29:44.494Z,41.14
2019-05-10T17:32:12.974Z,40.37
2019-05-10T17:34:43.449Z,40.84
2019-05-10T17:37:13.961Z,40.78
2019-05-10T17:39:44.434Z,40.92
2019-05-10T17:42:14.876Z,40.40
2019-05-10T17:44:45.388Z,40.16
2019-05-10T17:47:15.790Z,40.39
2019-05-10T17:49:46.286Z,40.52
2019-05-10T17:52:16.730Z,40.14
2019-05-10T17:54:47.292Z,40.73
2019-05-10T17:57:18.500Z,40.55
2019-05-10T17:59:53.084Z,40.85
2019-05-10T18:02:21.152Z,41.03
2019-05-10T18:04:51.638Z,41.28
2019-05-10T18:07:22.209Z,41.24
2019-05-10T18:09:52.700Z,41.54
2019-05-10T18:12:26.948Z,41.47
2019-05-10T18:14:55.797Z,41.19
2019-05-10T18:17:27.768Z,41.29
2019-05-10T18:20:02.193Z,41.22
2019-05-10T18:22:30.371Z,41.24
2019-05-10T18:25:00.812Z,41.34
2019-05-10T18:27:31.394Z,41.19
2019-05-10T18:30:02.293Z,41.49
2019-05-10T18:32:35.717Z,41.55
2019-05-10T18:35:13.360Z,41.44
2019-05-10T18:37:37.726Z,41.41
2019-05-10T18:40:08.535Z,41.63
2019-05-10T18:42:39.020Z,41.24
2019-05-10T18:45:09.841Z,41.68
2019-05-10T18:47:40.324Z,41.50
2019-05-10T18:50:11.115Z,41.31
2019-05-10T18:52:41.594Z,41.57
2019-05-10T18:55:12.090Z,41.07
2019-05-10T18:57:45.332Z,41.29
2019-05-10T19:00:17.687Z,41.21
2019-05-10T19:02:49.790Z,41.50
2019-05-10T19:05:19.639Z,40.92
2019-05-10T19:08:02.712Z,41.14
2019-05-10T19:10:22.339Z,41.51
2019-05-10T19:13:00.655Z,41.34
2019-05-10T19:15:24.960Z,41.57
2019-05-10T19:17:55.422Z,41.72
2019-05-10T19:20:25.959Z,42.06
2019-05-10T19:22:56.414Z,41.94
2019-05-10T19:25:27.898Z,41.95
2019-05-10T19:27:58.383Z,42.04
2019-05-10T19:30:28.857Z,41.87
2019-05-10T19:32:59.376Z,42.05
2019-05-10T19:35:35.460Z,41.85
2019-05-10T19:38:01.970Z,42.20
2019-05-10T19:40:32.449Z,42.61
2019-05-10T19:43:02.877Z,42.35
2019-05-10T19:45:33.356Z,42.17
2019-05-10T19:48:05.887Z,42.42
2019-05-10T19:50:36.048Z,42.52
2019-05-10T19:53:06.552Z,43.04
2019-05-10T19:55:37.061Z,42.61
2019-05-10T19:58:07.614Z,42.77
2019-05-10T20:00:38.096Z,42.54
2019-05-10T20:03:08.704Z,42.40
2019-05-10T20:05:39.188Z,42.59
2019-05-10T20:08:09.729Z,42.62
2019-05-10T20:10:40.197Z,42.61
2019-05-10T20:13:10.672Z,42.89
2019-05-10T20:15:41.110Z,42.79
2019-05-10T20:18:11.776Z,42.56
2019-05-10T20:20:42.342Z,42.27
2019-05-10T20:23:12.919Z,42.65
2019-05-10T20:25:43.366Z,42.68
2019-05-10T20:28:13.802Z,42.58
2019-05-10T20:30:44.336Z,42.54
2019-05-10T20:33:14.819Z,42.30
2019-05-10T20:35:45.260Z,42.36
2019-05-10T20:38:15.706Z,42.46
2019-05-10T20:40:46.140Z,42.47
2019-05-10T20:43:16.629Z,42.73
2019-05-10T20:45:47.052Z,42.52
2019-05-10T20:48:17.556Z,42.73
2019-05-10T20:50:48.093Z,42.74
2019-05-10T20:53:18.596Z,42.74
2019-05-10T20:55:49.044Z,42.98
2019-05-10T20:58:19.552Z,42.92
2019-05-10T21:00:50.040Z,43.11
2019-05-10T21:03:20.519Z,43.26
2019-05-10T21:05:50.948Z,43.37
2019-05-10T21:08:21.456Z,43.29
2019-05-10T21:10:51.937Z,43.23
2019-05-10T21:13:22.407Z,43.18
2019-05-10T21:15:52.895Z,43.29
2019-05-10T21:18:23.364Z,43.42
2019-05-10T21:20:53.841Z,43.30
2019-05-10T21:23:24.301Z,43.32
2019-05-10T21:25:54.772Z,43.38
2019-05-10T21:28:25.280Z,43.50
2019-05-10T21:30:55.759Z,43.47
2019-05-10T21:33:26.181Z,43.63
2019-05-10T21:35:56.665Z,43.41
2019-05-10T21:38:32.827Z,43.74
2019-05-10T21:40:59.306Z,43.82
2019-05-10T21:43:29.856Z,43.96
2019-05-10T21:46:00.359Z,44.39
2019-05-10T21:48:30.795Z,44.28
2019-05-10T21:51:01.292Z,44.44
2019-05-10T21:53:31.736Z,44.67
2019-05-10T21:56:02.447Z,44.81
2019-05-10T21:58:32.895Z,44.89
2019-05-10T22:01:03.853Z,44.52
2019-05-10T22:03:34.444Z,44.34
2019-05-10T22:06:04.998Z,44.32
2019-05-10T22:08:48.486Z,44.93
2019-05-10T22:11:07.726Z,44.84
2019-05-10T22:13:38.215Z,44.61
2019-05-10T22:16:08.799Z,44.72
2019-05-10T22:18:39.280Z,44.64
2019-05-10T22:21:09.800Z,44.97
2019-05-10T22:23:40.291Z,44.53
2019-05-10T22:26:10.794Z,44.63
2019-05-10T22:28:41.229Z,44.58
2019-05-10T22:31:11.672Z,44.25
2019-05-10T22:33:42.151Z,44.39
2019-05-10T22:36:12.636Z,44.45
2019-05-10T22:38:43.073Z,44.27
2019-05-10T22:41:13.555Z,44.30
2019-05-10T22:43:44.169Z,44.20
2019-05-10T22:46:14.648Z,44.38
2019-05-10T22:48:45.093Z,44.68
2019-05-10T22:51:15.580Z,44.58
2019-05-10T22:53:59.052Z,44.71
2019-05-10T22:56:18.215Z,44.87
2019-05-10T22:58:48.643Z,45.02
2019-05-10T23:01:19.121Z,44.82
2019-05-10T23:03:49.576Z,44.95
2019-05-10T23:06:20.064Z,45.01
2019-05-10T23:08:50.497Z,45.11
2019-05-10T23:11:20.938Z,44.59
2019-05-10T23:13:51.417Z,44.76
2019-05-10T23:16:21.901Z,44.35
2019-05-10T23:18:52.354Z,44.39
2019-05-10T23:21:22.792Z,44.35
2019-05-10T23:23:53.317Z,44.32
2019-05-10T23:26:23.787Z,44.04
2019-05-10T23:28:54.216Z,43.81
2019-05-10T23:31:24.743Z,43.78
2019-05-10T23:33:55.178Z,43.73
2019-05-10T23:36:25.736Z,43.50
2019-05-10T23:38:56.258Z,43.71
2019-05-10T23:41:26.716Z,43.69
2019-05-10T23:43:57.212Z,43.54
2019-05-10T23:46:27.653Z,43.34
2019-05-10T23:48:58.121Z,43.39
2019-05-10T23:51:28.659Z,43.38
2019-05-10T23:53:59.136Z,43.31
2019-05-10T23:56:29.613Z,43.25
2019-05-10T23:59:00.134Z,43.31
